createdAt,value
2017-03-02T00:00:11.999Z,0
2017-03-02T00:01:11.896Z,0
2017-03-02T00:02:11.495Z,0
2017-03-02T00:03:11.864Z,0
2017-03-02T00:04:11.416Z,0
2017-03-02T00:05:11.800Z,0
2017-03-02T00:06:10.984Z,0
2017-03-02T00:07:11.764Z,0
2017-03-02T00:08:11.744Z,0
2017-03-02T00:09:11.712Z,0
2017-03-02T00:10:11.660Z,0
2017-03-02T00:11:11.711Z,0
2017-03-02T00:12:11.659Z,0
2017-03-02T00:13:10.832Z,0
2017-03-02T00:14:11.599Z,0
2017-03-02T00:15:11.569Z,0
2017-03-02T00:16:11.970Z,0
2017-03-02T00:17:11.942Z,0
2017-03-02T00:18:11.497Z,0
2017-03-02T00:19:11.488Z,0
2017-03-02T00:20:11.835Z,0
2017-03-02T00:21:11.444Z,0
2017-03-02T00:22:11.808Z,0
2017-03-02T00:23:11.413Z,0
2017-03-02T00:24:10.983Z,0
2017-03-02T00:25:11.342Z,0
2017-03-02T00:26:11.322Z,0
2017-03-02T00:27:10.895Z,0
2017-03-02T00:28:11.272Z,0
2017-03-02T00:29:11.641Z,0
2017-03-02T00:30:11.645Z,0
2017-03-02T00:31:11.206Z,0
2017-03-02T00:32:11.193Z,0
2017-03-02T00:33:11.546Z,0
2017-03-02T00:34:11.514Z,0
2017-03-02T00:35:11.127Z,0
2017-03-02T00:36:11.086Z,0
2017-03-02T00:37:10.666Z,0
2017-03-02T00:38:11.032Z,0
2017-03-02T00:39:11.146Z,0
2017-03-02T00:40:10.595Z,0
2017-03-02T00:41:11.383Z,0
2017-03-02T00:42:10.949Z,0
2017-03-02T00:43:11.332Z,0
2017-03-02T00:44:10.906Z,0
2017-03-02T00:45:10.939Z,0
2017-03-02T00:46:10.852Z,0
2017-03-02T00:47:10.490Z,0
2017-03-02T00:48:11.207Z,0
2017-03-02T00:49:10.401Z,0
2017-03-02T00:50:10.388Z,0
2017-03-02T00:51:10.348Z,0
2017-03-02T00:52:10.719Z,0
2017-03-02T00:53:10.697Z,0
2017-03-02T00:54:10.694Z,0
2017-03-02T00:55:10.685Z,0
2017-03-02T00:56:10.613Z,0
2017-03-02T00:57:10.646Z,0
2017-03-02T00:58:10.964Z,0
2017-03-02T00:59:10.171Z,0
2017-03-02T01:00:10.590Z,0
2017-03-02T01:01:10.893Z,0
2017-03-02T01:02:10.873Z,0
2017-03-02T01:03:10.863Z,0
2017-03-02T01:04:10.066Z,0
2017-03-02T01:05:10.021Z,0
2017-03-02T01:06:10.787Z,0
2017-03-02T01:07:09.990Z,0
2017-03-02T01:08:10.809Z,0
2017-03-02T01:09:09.946Z,0
2017-03-02T01:10:10.315Z,0
2017-03-02T01:11:09.967Z,0
2017-03-02T01:12:10.643Z,0
2017-03-02T01:13:10.243Z,0
2017-03-02T01:14:09.848Z,0
2017-03-02T01:15:10.194Z,0
2017-03-02T01:16:10.224Z,0
2017-03-02T01:17:09.884Z,0
2017-03-02T01:18:10.515Z,0
2017-03-02T01:19:10.112Z,0
2017-03-02T01:20:09.694Z,0
2017-03-02T01:21:10.061Z,0
2017-03-02T01:22:10.081Z,0
2017-03-02T01:23:09.618Z,0
2017-03-02T01:24:09.981Z,0
2017-03-02T01:25:09.597Z,0
2017-03-02T01:26:09.569Z,0
2017-03-02T01:27:10.011Z,0
2017-03-02T01:28:09.529Z,0
2017-03-02T01:29:09.488Z,0
2017-03-02T01:30:10.247Z,0
2017-03-02T01:31:09.937Z,0
2017-03-02T01:32:10.196Z,0
2017-03-02T01:33:09.017Z,0
2017-03-02T01:34:10.177Z,0
2017-03-02T01:35:09.785Z,0
2017-03-02T01:36:09.737Z,0
2017-03-02T01:37:10.100Z,0
2017-03-02T01:38:09.737Z,0
2017-03-02T01:39:09.254Z,0
2017-03-02T01:40:09.623Z,0
2017-03-02T01:41:09.983Z,0
2017-03-02T01:42:09.972Z,0
2017-03-02T01:43:09.662Z,0
2017-03-02T01:44:09.531Z,0
2017-03-02T01:45:08.750Z,0
2017-03-02T01:46:09.901Z,0
2017-03-02T01:47:09.069Z,0
2017-03-02T01:48:09.839Z,0
2017-03-02T01:49:09.488Z,0
2017-03-02T01:50:09.798Z,0
2017-03-02T01:51:09.470Z,0
2017-03-02T01:52:08.966Z,0
2017-03-02T01:53:08.935Z,0
2017-03-02T01:54:09.767Z,0
2017-03-02T01:55:08.897Z,0
2017-03-02T01:56:09.677Z,0
2017-03-02T01:57:09.314Z,0
2017-03-02T01:58:09.605Z,0
2017-03-02T01:59:08.824Z,0
2017-03-02T02:00:08.757Z,0
2017-03-02T02:01:09.544Z,0
2017-03-02T02:02:09.201Z,0
2017-03-02T02:03:09.486Z,0
2017-03-02T02:04:08.698Z,0
2017-03-02T02:05:09.100Z,0
2017-03-02T02:06:09.490Z,0
2017-03-02T02:07:09.400Z,0
2017-03-02T02:08:09.434Z,0
2017-03-02T02:09:08.577Z,0
2017-03-02T02:10:09.078Z,0
2017-03-02T02:11:08.907Z,0
2017-03-02T02:12:08.117Z,0
2017-03-02T02:13:09.267Z,0
2017-03-02T02:14:08.906Z,0
2017-03-02T02:15:08.429Z,0
2017-03-02T02:16:09.313Z,0
2017-03-02T02:17:08.794Z,0
2017-03-02T02:18:08.837Z,0
2017-03-02T02:19:08.741Z,0
2017-03-02T02:20:08.036Z,0
2017-03-02T02:21:08.703Z,0
2017-03-02T02:22:09.071Z,0
2017-03-02T02:23:08.379Z,0
2017-03-02T02:24:08.271Z,0
2017-03-02T02:25:09.002Z,0
2017-03-02T02:26:09.055Z,0
2017-03-02T02:27:08.616Z,0
2017-03-02T02:28:08.152Z,0
2017-03-02T02:29:08.913Z,0
2017-03-02T02:30:07.899Z,0
2017-03-02T02:31:08.105Z,0
2017-03-02T02:32:08.451Z,0
2017-03-02T02:33:08.429Z,0
2017-03-02T02:34:08.486Z,0
2017-03-02T02:35:07.998Z,0
2017-03-02T02:36:08.739Z,0
2017-03-02T02:37:08.367Z,0
2017-03-02T02:38:08.424Z,0
2017-03-02T02:39:08.734Z,0
2017-03-02T02:40:08.720Z,0
2017-03-02T02:41:08.263Z,0
2017-03-02T02:42:07.444Z,0
2017-03-02T02:43:08.202Z,0
2017-03-02T02:44:07.799Z,0
2017-03-02T02:45:07.808Z,0
2017-03-02T02:46:07.742Z,0
2017-03-02T02:47:08.139Z,0
2017-03-02T02:48:07.719Z,0
2017-03-02T02:49:07.672Z,0
2017-03-02T02:50:08.539Z,0
2017-03-02T02:51:07.618Z,0
2017-03-02T02:52:08.388Z,0
2017-03-02T02:53:07.960Z,0
2017-03-02T02:54:08.377Z,0
2017-03-02T02:55:08.326Z,0
2017-03-02T02:56:07.526Z,0
2017-03-02T02:57:07.962Z,0
2017-03-02T02:58:07.861Z,0
2017-03-02T02:59:07.913Z,0
2017-03-02T03:00:07.030Z,0
2017-03-02T03:01:07.805Z,0
2017-03-02T03:02:08.165Z,0
2017-03-02T03:03:07.803Z,0
2017-03-02T03:04:08.190Z,0
2017-03-02T03:05:08.093Z,0
2017-03-02T03:06:07.296Z,0
2017-03-02T03:07:08.140Z,0
2017-03-02T03:08:07.640Z,0
2017-03-02T03:09:07.624Z,0
2017-03-02T03:10:07.596Z,0
2017-03-02T03:11:07.579Z,0
2017-03-02T03:12:07.978Z,0
2017-03-02T03:13:07.515Z,0
2017-03-02T03:14:07.937Z,0
2017-03-02T03:15:07.086Z,0
2017-03-02T03:16:07.895Z,0
2017-03-02T03:17:07.076Z,0
2017-03-02T03:18:07.455Z,0
2017-03-02T03:19:07.013Z,0
2017-03-02T03:20:07.355Z,0
2017-03-02T03:21:06.961Z,0
2017-03-02T03:22:07.331Z,0
2017-03-02T03:23:07.284Z,0
2017-03-02T03:24:07.321Z,0
2017-03-02T03:25:07.635Z,0
2017-03-02T03:26:07.231Z,0
2017-03-02T03:27:07.210Z,0
2017-03-02T03:28:07.602Z,0
2017-03-02T03:29:07.186Z,0
2017-03-02T03:30:06.748Z,0
2017-03-02T03:31:07.126Z,0
2017-03-02T03:32:07.096Z,0
2017-03-02T03:33:07.076Z,0
2017-03-02T03:34:07.076Z,0
2017-03-02T03:35:07.048Z,0
2017-03-02T03:36:06.655Z,0
2017-03-02T03:37:06.596Z,0
2017-03-02T03:38:06.966Z,0
2017-03-02T03:39:06.565Z,0
2017-03-02T03:40:06.151Z,0
2017-03-02T03:41:06.892Z,0
2017-03-02T03:42:06.883Z,0
2017-03-02T03:43:07.241Z,0
2017-03-02T03:44:06.566Z,0
2017-03-02T03:45:06.420Z,0
2017-03-02T03:46:06.783Z,0
2017-03-02T03:47:06.780Z,0
2017-03-02T03:48:06.750Z,0
2017-03-02T03:49:07.169Z,0
2017-03-02T03:50:06.700Z,0
2017-03-02T03:51:07.081Z,0
2017-03-02T03:52:06.635Z,0
2017-03-02T03:53:06.626Z,0
2017-03-02T03:54:07.043Z,0
2017-03-02T03:55:06.186Z,0
2017-03-02T03:56:06.183Z,0
2017-03-02T03:57:06.193Z,0
2017-03-02T03:58:06.904Z,0
2017-03-02T03:59:06.152Z,0
2017-03-02T04:00:06.861Z,0
2017-03-02T04:01:06.829Z,0
2017-03-02T04:02:06.442Z,0
2017-03-02T04:03:06.023Z,0
2017-03-02T04:04:06.760Z,0
2017-03-02T04:05:06.362Z,0
2017-03-02T04:06:06.718Z,0
2017-03-02T04:07:06.356Z,0
2017-03-02T04:08:06.689Z,0
2017-03-02T04:09:06.002Z,0
2017-03-02T04:10:06.648Z,0
2017-03-02T04:11:05.857Z,0
2017-03-02T04:12:06.208Z,0
2017-03-02T04:13:06.157Z,0
2017-03-02T04:14:05.752Z,0
2017-03-02T04:15:06.513Z,0
2017-03-02T04:16:06.109Z,0
2017-03-02T04:17:05.681Z,0
2017-03-02T04:18:05.685Z,0
2017-03-02T04:19:06.184Z,0
2017-03-02T04:20:05.610Z,0
2017-03-02T04:21:06.390Z,0
2017-03-02T04:22:05.971Z,0
2017-03-02T04:23:05.530Z,0
2017-03-02T04:24:05.130Z,0
2017-03-02T04:25:05.539Z,0
2017-03-02T04:26:05.867Z,0
2017-03-02T04:27:05.448Z,0
2017-03-02T04:28:05.829Z,0
2017-03-02T04:29:05.407Z,0
2017-03-02T04:30:05.376Z,0
2017-03-02T04:31:04.957Z,0
2017-03-02T04:32:06.115Z,0
2017-03-02T04:33:05.340Z,0
2017-03-02T04:34:06.053Z,0
2017-03-02T04:35:05.664Z,0
2017-03-02T04:36:05.235Z,0
2017-03-02T04:37:06.003Z,0
2017-03-02T04:38:05.585Z,0
2017-03-02T04:39:05.558Z,0
2017-03-02T04:40:05.552Z,0
2017-03-02T04:41:05.110Z,0
2017-03-02T04:42:05.100Z,0
2017-03-02T04:43:05.859Z,0
2017-03-02T04:44:05.845Z,0
2017-03-02T04:45:05.878Z,0
2017-03-02T04:46:05.003Z,0
2017-03-02T04:47:04.996Z,0
2017-03-02T04:48:04.586Z,0
2017-03-02T04:49:05.317Z,0
2017-03-02T04:50:05.696Z,0
2017-03-02T04:51:05.274Z,0
2017-03-02T04:52:05.272Z,0
2017-03-02T04:53:04.854Z,0
2017-03-02T04:54:05.593Z,0
2017-03-02T04:55:04.825Z,0
2017-03-02T04:56:05.553Z,0
2017-03-02T04:57:05.152Z,0
2017-03-02T04:58:05.520Z,0
2017-03-02T04:59:05.496Z,0
2017-03-02T05:00:05.080Z,0
2017-03-02T05:01:05.469Z,0
2017-03-02T05:02:04.646Z,0
2017-03-02T05:03:05.033Z,0
2017-03-02T05:04:04.990Z,0
2017-03-02T05:05:04.583Z,0
2017-03-02T05:06:05.353Z,0
2017-03-02T05:07:04.566Z,0
2017-03-02T05:08:04.496Z,0
2017-03-02T05:09:05.272Z,0
2017-03-02T05:10:04.856Z,0
2017-03-02T05:11:04.884Z,0
2017-03-02T05:12:05.212Z,0
2017-03-02T05:13:04.393Z,0
2017-03-02T05:14:05.148Z,0
2017-03-02T05:15:05.123Z,0
2017-03-02T05:16:05.171Z,0
2017-03-02T05:17:04.449Z,0
2017-03-02T05:18:04.675Z,0
2017-03-02T05:19:04.311Z,0
2017-03-02T05:20:04.601Z,0
2017-03-02T05:21:04.607Z,0
2017-03-02T05:22:04.690Z,0
2017-03-02T05:23:04.698Z,0
2017-03-02T05:24:04.182Z,0
2017-03-02T05:25:04.589Z,0
2017-03-02T05:26:04.486Z,0
2017-03-02T05:27:04.516Z,0
2017-03-02T05:28:04.825Z,0
2017-03-02T05:29:04.416Z,0
2017-03-02T05:30:04.376Z,0
2017-03-02T05:31:04.384Z,0
2017-03-02T05:32:04.333Z,0
2017-03-02T05:33:04.386Z,0
2017-03-02T05:34:04.722Z,0
2017-03-02T05:35:04.265Z,0
2017-03-02T05:36:04.251Z,0
2017-03-02T05:37:04.231Z,0
2017-03-02T05:38:04.571Z,0
2017-03-02T05:39:04.621Z,0
2017-03-02T05:40:04.143Z,0
2017-03-02T05:41:04.128Z,0
2017-03-02T05:42:04.158Z,0
2017-03-02T05:43:03.704Z,0
2017-03-02T05:44:04.088Z,0
2017-03-02T05:45:04.107Z,0
2017-03-02T05:46:03.709Z,0
2017-03-02T05:47:04.361Z,0
2017-03-02T05:48:04.069Z,0
2017-03-02T05:49:03.993Z,0
2017-03-02T05:50:03.906Z,4
2017-03-02T05:51:03.504Z,4
2017-03-02T05:52:03.931Z,4
2017-03-02T05:53:04.228Z,4
2017-03-02T05:54:03.903Z,4
2017-03-02T05:55:04.213Z,4
2017-03-02T05:56:03.781Z,4
2017-03-02T05:57:04.141Z,4
2017-03-02T05:58:03.760Z,4
2017-03-02T05:59:03.800Z,4
2017-03-02T06:00:03.731Z,8
2017-03-02T06:01:03.765Z,8
2017-03-02T06:02:03.687Z,12
2017-03-02T06:03:04.004Z,12
2017-03-02T06:04:03.188Z,12
2017-03-02T06:05:03.202Z,12
2017-03-02T06:06:03.149Z,16
2017-03-02T06:07:03.893Z,20
2017-03-02T06:08:03.096Z,24
2017-03-02T06:09:03.849Z,24
2017-03-02T06:10:03.467Z,28
2017-03-02T06:11:03.478Z,32
2017-03-02T06:12:03.794Z,44
2017-03-02T06:13:03.438Z,56
2017-03-02T06:14:03.751Z,68
2017-03-02T06:15:03.712Z,92
2017-03-02T06:16:03.706Z,132
2017-03-02T06:17:03.274Z,192
2017-03-02T06:18:03.267Z,256
2017-03-02T06:19:03.617Z,280
2017-03-02T06:20:03.600Z,308
2017-03-02T06:21:03.180Z,324
2017-03-02T06:22:02.770Z,352
2017-03-02T06:23:02.743Z,368
2017-03-02T06:24:02.781Z,400
2017-03-02T06:25:03.487Z,436
2017-03-02T06:26:03.501Z,504
2017-03-02T06:27:03.075Z,556
2017-03-02T06:28:03.436Z,612
2017-03-02T06:29:02.995Z,660
2017-03-02T06:30:03.466Z,728
2017-03-02T06:31:02.944Z,828
2017-03-02T06:32:03.023Z,908
2017-03-02T06:33:02.139Z,972
2017-03-02T06:34:03.001Z,1016
2017-03-02T06:35:02.575Z,1124
2017-03-02T06:36:02.509Z,1212
2017-03-02T06:37:02.427Z,1240
2017-03-02T06:38:03.232Z,1272
2017-03-02T06:39:02.770Z,1324
2017-03-02T06:40:02.817Z,1300
2017-03-02T06:41:02.729Z,1280
2017-03-02T06:42:02.774Z,1188
2017-03-02T06:43:02.287Z,1176
2017-03-02T06:44:02.677Z,1160
2017-03-02T06:45:02.307Z,1180
2017-03-02T06:46:03.075Z,1144
2017-03-02T06:47:02.564Z,1212
2017-03-02T06:48:02.611Z,1268
2017-03-02T06:49:02.931Z,1348
2017-03-02T06:50:01.846Z,1412
2017-03-02T06:51:02.498Z,1520
2017-03-02T06:52:02.843Z,1744
2017-03-02T06:53:02.504Z,3516
2017-03-02T06:54:02.814Z,2180
2017-03-02T06:55:02.382Z,1828
2017-03-02T06:56:01.970Z,1716
2017-03-02T06:57:02.779Z,1716
2017-03-02T06:58:01.920Z,1720
2017-03-02T06:59:02.352Z,1588
2017-03-02T07:00:02.286Z,1580
2017-03-02T07:01:01.859Z,1740
2017-03-02T07:02:02.627Z,1856
2017-03-02T07:03:02.246Z,1880
2017-03-02T07:04:02.584Z,1752
2017-03-02T07:05:02.258Z,1660
2017-03-02T07:06:02.585Z,1440
2017-03-02T07:07:01.796Z,1372
2017-03-02T07:08:02.104Z,1400
2017-03-02T07:09:02.153Z,1188
2017-03-02T07:10:02.052Z,1156
2017-03-02T07:11:02.112Z,1224
2017-03-02T07:12:02.382Z,1280
2017-03-02T07:13:01.579Z,1620
2017-03-02T07:14:02.075Z,1828
2017-03-02T07:15:01.953Z,1624
2017-03-02T07:16:01.912Z,1832
2017-03-02T07:17:01.564Z,2136
2017-03-02T07:18:01.900Z,2504
2017-03-02T07:19:01.819Z,3064
2017-03-02T07:20:02.200Z,4048
2017-03-02T07:21:02.196Z,5568
2017-03-02T07:22:02.146Z,5528
2017-03-02T07:23:01.345Z,5772
2017-03-02T07:24:00.955Z,4660
2017-03-02T07:25:01.704Z,3280
2017-03-02T07:26:00.885Z,2328
2017-03-02T07:27:01.248Z,2336
2017-03-02T07:28:02.093Z,2220
2017-03-02T07:29:01.599Z,2704
2017-03-02T07:30:01.571Z,2136
2017-03-02T07:31:01.172Z,1916
2017-03-02T07:32:01.622Z,1832
2017-03-02T07:33:01.101Z,1688
2017-03-02T07:34:01.540Z,1320
2017-03-02T07:35:01.909Z,1132
2017-03-02T07:36:01.078Z,1136
2017-03-02T07:37:01.413Z,1196
2017-03-02T07:38:01.813Z,1440
2017-03-02T07:39:01.805Z,1496
2017-03-02T07:40:01.825Z,1240
2017-03-02T07:41:01.715Z,964
2017-03-02T07:42:00.912Z,956
2017-03-02T07:43:01.697Z,968
2017-03-02T07:44:00.863Z,780
2017-03-02T07:45:01.232Z,840
2017-03-02T07:46:01.199Z,972
2017-03-02T07:47:01.182Z,812
2017-03-02T07:48:00.839Z,680
2017-03-02T07:49:01.140Z,760
2017-03-02T07:50:00.339Z,1072
2017-03-02T07:51:00.692Z,1308
2017-03-02T07:52:01.105Z,1320
2017-03-02T07:53:00.659Z,1076
2017-03-02T07:54:01.017Z,940
2017-03-02T07:55:01.477Z,908
2017-03-02T07:56:00.987Z,816
2017-03-02T07:57:00.547Z,864
2017-03-02T07:58:01.305Z,792
2017-03-02T07:59:00.915Z,664
2017-03-02T08:00:00.475Z,584
2017-03-02T08:01:00.853Z,492
2017-03-02T08:02:00.135Z,512
2017-03-02T08:03:00.477Z,460
2017-03-02T08:04:00.784Z,412
2017-03-02T08:05:00.379Z,372
2017-03-02T08:06:00.734Z,432
2017-03-02T08:07:00.725Z,492
2017-03-02T08:08:00.684Z,496
2017-03-02T08:09:01.111Z,496
2017-03-02T08:10:00.648Z,688
2017-03-02T08:11:00.239Z,700
2017-03-02T08:12:00.224Z,588
2017-03-02T08:13:00.578Z,588
2017-03-02T08:14:00.958Z,572
2017-03-02T08:15:00.905Z,576
2017-03-02T08:16:00.508Z,628
2017-03-02T08:17:00.084Z,680
2017-03-02T08:18:00.459Z,744
2017-03-02T08:19:00.067Z,692
2017-03-02T08:20:00.787Z,660
2017-03-02T08:21:00.405Z,628
2017-03-02T08:22:00.373Z,700
2017-03-02T08:23:00.714Z,888
2017-03-02T08:24:00.702Z,1408
2017-03-02T08:25:00.289Z,1312
2017-03-02T08:26:00.248Z,1192
2017-03-02T08:27:00.630Z,1232
2017-03-02T08:28:00.261Z,1104
2017-03-02T08:29:00.182Z,1036
2017-03-02T08:29:59.790Z,1072
2017-03-02T08:31:00.526Z,1056
2017-03-02T08:32:00.514Z,1344
2017-03-02T08:33:00.099Z,1484
2017-03-02T08:34:00.140Z,1388
2017-03-02T08:35:00.436Z,1504
2017-03-02T08:35:59.615Z,1528
2017-03-02T08:36:59.981Z,1568
2017-03-02T08:37:59.185Z,1436
2017-03-02T08:38:59.964Z,1532
2017-03-02T08:40:00.324Z,1648
2017-03-02T08:40:59.900Z,1716
2017-03-02T08:42:00.274Z,1664
2017-03-02T08:42:59.832Z,1588
2017-03-02T08:43:59.812Z,1412
2017-03-02T08:44:59.411Z,1356
2017-03-02T08:45:59.411Z,1264
2017-03-02T08:47:00.221Z,1192
2017-03-02T08:47:59.729Z,1248
2017-03-02T08:49:00.133Z,1256
2017-03-02T08:49:59.296Z,1312
2017-03-02T08:50:59.657Z,1412
2017-03-02T08:51:59.635Z,1540
2017-03-02T08:52:59.626Z,1536
2017-03-02T08:53:59.583Z,1516
2017-03-02T08:54:59.946Z,1464
2017-03-02T08:55:59.156Z,1404
2017-03-02T08:56:59.505Z,1540
2017-03-02T08:57:59.084Z,1616
2017-03-02T08:58:59.857Z,1776
2017-03-02T08:59:59.063Z,1940
2017-03-02T09:00:59.402Z,1892
2017-03-02T09:01:59.389Z,1752
2017-03-02T09:02:59.373Z,1740
2017-03-02T09:03:59.734Z,1844
2017-03-02T09:04:59.711Z,2164
2017-03-02T09:05:59.288Z,2060
2017-03-02T09:06:59.261Z,1736
2017-03-02T09:07:59.249Z,1912
2017-03-02T09:08:59.240Z,1824
2017-03-02T09:09:59.640Z,1952
2017-03-02T09:10:59.559Z,1640
2017-03-02T09:11:58.797Z,1560
2017-03-02T09:12:59.133Z,1460
2017-03-02T09:13:59.109Z,1708
2017-03-02T09:14:59.090Z,1540
2017-03-02T09:15:59.040Z,1568
2017-03-02T09:16:59.426Z,1400
2017-03-02T09:17:59.013Z,1368
2017-03-02T09:18:59.394Z,1256
2017-03-02T09:19:59.347Z,1288
2017-03-02T09:20:58.933Z,1244
2017-03-02T09:21:58.895Z,1244
2017-03-02T09:22:58.901Z,1300
2017-03-02T09:23:58.860Z,1092
2017-03-02T09:24:58.426Z,1248
2017-03-02T09:25:58.809Z,1196
2017-03-02T09:26:58.791Z,1020
2017-03-02T09:27:59.150Z,996
2017-03-02T09:28:59.131Z,1356
2017-03-02T09:29:58.714Z,1424
2017-03-02T09:30:58.294Z,1520
2017-03-02T09:31:58.742Z,1256
2017-03-02T09:32:58.623Z,1224
2017-03-02T09:33:58.289Z,1312
2017-03-02T09:34:58.970Z,1392
2017-03-02T09:35:58.955Z,1348
2017-03-02T09:36:57.822Z,1288
2017-03-02T09:37:58.534Z,1132
2017-03-02T09:38:58.506Z,1144
2017-03-02T09:39:58.553Z,1328
2017-03-02T09:40:58.043Z,1468
2017-03-02T09:41:58.023Z,1736
2017-03-02T09:42:58.781Z,1480
2017-03-02T09:43:58.082Z,1572
2017-03-02T09:44:58.333Z,1636
2017-03-02T09:45:58.311Z,1788
2017-03-02T09:46:58.684Z,1764
2017-03-02T09:47:58.659Z,1960
2017-03-02T09:48:57.857Z,2148
2017-03-02T09:49:57.848Z,2204
2017-03-02T09:50:58.587Z,2520
2017-03-02T09:51:58.165Z,2100
2017-03-02T09:52:57.769Z,2636
2017-03-02T09:53:57.757Z,2504
2017-03-02T09:54:58.096Z,2428
2017-03-02T09:55:58.094Z,2108
2017-03-02T09:56:58.485Z,1976
2017-03-02T09:57:57.655Z,1976
2017-03-02T09:58:58.120Z,2072
2017-03-02T09:59:58.392Z,1680
2017-03-02T10:00:57.573Z,1776
2017-03-02T10:01:57.947Z,1944
2017-03-02T10:02:57.994Z,2084
2017-03-02T10:03:57.882Z,1896
2017-03-02T10:04:57.478Z,2080
2017-03-02T10:05:57.081Z,2428
2017-03-02T10:06:58.211Z,2348
2017-03-02T10:07:57.805Z,2280
2017-03-02T10:08:57.387Z,2160
2017-03-02T10:09:56.957Z,2048
2017-03-02T10:10:57.334Z,2196
2017-03-02T10:11:57.735Z,2400
2017-03-02T10:12:57.297Z,2344
2017-03-02T10:13:57.657Z,1804
2017-03-02T10:14:56.847Z,1860
2017-03-02T10:15:57.593Z,2136
2017-03-02T10:16:57.233Z,1948
2017-03-02T10:17:57.565Z,2036
2017-03-02T10:18:57.964Z,1936
2017-03-02T10:19:57.916Z,1844
2017-03-02T10:20:57.862Z,1808
2017-03-02T10:21:57.461Z,2140
2017-03-02T10:22:57.430Z,2024
2017-03-02T10:23:57.441Z,1724
2017-03-02T10:24:57.371Z,1720
2017-03-02T10:25:56.971Z,1412
2017-03-02T10:26:57.340Z,1416
2017-03-02T10:27:57.309Z,1224
2017-03-02T10:28:57.298Z,1368
2017-03-02T10:29:57.270Z,1412
2017-03-02T10:30:57.639Z,1324
2017-03-02T10:31:57.607Z,1184
2017-03-02T10:32:57.186Z,1188
2017-03-02T10:33:57.166Z,1268
2017-03-02T10:34:57.577Z,1368
2017-03-02T10:35:56.725Z,1516
2017-03-02T10:36:56.707Z,1336
2017-03-02T10:37:57.466Z,1680
2017-03-02T10:38:57.421Z,1632
2017-03-02T10:39:57.442Z,1616
2017-03-02T10:40:57.023Z,1728
2017-03-02T10:41:57.374Z,1712
2017-03-02T10:42:57.387Z,1720
2017-03-02T10:43:57.324Z,1740
2017-03-02T10:44:56.110Z,1940
2017-03-02T10:45:56.889Z,1760
2017-03-02T10:46:56.459Z,1720
2017-03-02T10:47:57.248Z,1824
2017-03-02T10:48:57.197Z,1936
2017-03-02T10:49:57.208Z,1832
2017-03-02T10:50:56.769Z,2072
2017-03-02T10:51:56.725Z,2024
2017-03-02T10:52:56.837Z,2280
2017-03-02T10:53:56.696Z,2420
2017-03-02T10:54:57.056Z,2584
2017-03-02T10:55:56.645Z,2780
2017-03-02T10:56:56.612Z,2856
2017-03-02T10:57:56.284Z,3444
2017-03-02T10:58:56.753Z,3520
2017-03-02T10:59:56.963Z,3384
2017-03-02T11:00:56.912Z,3216
2017-03-02T11:01:56.575Z,3148
2017-03-02T11:02:56.851Z,2936
2017-03-02T11:03:56.851Z,3144
2017-03-02T11:04:56.449Z,3180
2017-03-02T11:05:56.017Z,2892
2017-03-02T11:06:56.779Z,2732
2017-03-02T11:07:56.755Z,2920
2017-03-02T11:08:56.387Z,2748
2017-03-02T11:09:56.694Z,2852
2017-03-02T11:10:56.295Z,2928
2017-03-02T11:11:56.656Z,2700
2017-03-02T11:12:55.925Z,2528
2017-03-02T11:13:55.824Z,2628
2017-03-02T11:14:56.596Z,2640
2017-03-02T11:15:55.798Z,2312
2017-03-02T11:16:56.198Z,2248
2017-03-02T11:17:56.523Z,2476
2017-03-02T11:18:56.514Z,2840
2017-03-02T11:19:55.712Z,2996
2017-03-02T11:20:56.072Z,2804
2017-03-02T11:21:56.022Z,2740
2017-03-02T11:22:56.402Z,2568
2017-03-02T11:23:56.051Z,2664
2017-03-02T11:24:55.970Z,2860
2017-03-02T11:25:55.576Z,2864
2017-03-02T11:26:55.992Z,2812
2017-03-02T11:27:56.281Z,2492
2017-03-02T11:28:55.494Z,2396
2017-03-02T11:29:56.237Z,2484
2017-03-02T11:30:55.446Z,2520
2017-03-02T11:31:55.809Z,2256
2017-03-02T11:32:55.395Z,2180
2017-03-02T11:33:56.147Z,2144
2017-03-02T11:34:55.345Z,2068
2017-03-02T11:35:56.093Z,2072
2017-03-02T11:36:55.300Z,2316
2017-03-02T11:37:55.284Z,2260
2017-03-02T11:38:55.645Z,2476
2017-03-02T11:39:56.029Z,2392
2017-03-02T11:40:55.603Z,2332
2017-03-02T11:41:55.951Z,1952
2017-03-02T11:42:55.570Z,1788
2017-03-02T11:43:55.541Z,1756
2017-03-02T11:44:55.896Z,1900
2017-03-02T11:45:55.480Z,2352
2017-03-02T11:46:55.881Z,2140
2017-03-02T11:47:55.839Z,2068
2017-03-02T11:48:55.419Z,1980
2017-03-02T11:49:55.798Z,1988
2017-03-02T11:50:55.754Z,2088
2017-03-02T11:51:55.745Z,2152
2017-03-02T11:52:55.756Z,2136
2017-03-02T11:53:55.694Z,2256
2017-03-02T11:54:54.561Z,2224
2017-03-02T11:55:54.865Z,2384
2017-03-02T11:56:55.315Z,2444
2017-03-02T11:57:55.203Z,2844
2017-03-02T11:58:55.684Z,3388
2017-03-02T11:59:55.573Z,3252
2017-03-02T12:00:54.852Z,2980
2017-03-02T12:01:54.483Z,2988
2017-03-02T12:02:55.708Z,3272
2017-03-02T12:03:55.076Z,3364
2017-03-02T12:04:55.443Z,3192
2017-03-02T12:05:55.409Z,3156
2017-03-02T12:06:54.649Z,3112
2017-03-02T12:07:54.589Z,2540
2017-03-02T12:08:54.999Z,2700
2017-03-02T12:09:54.567Z,2940
2017-03-02T12:10:54.956Z,2836
2017-03-02T12:11:54.898Z,2812
2017-03-02T12:12:54.976Z,2692
2017-03-02T12:13:55.284Z,2632
2017-03-02T12:14:54.860Z,2384
2017-03-02T12:15:54.805Z,2340
2017-03-02T12:16:55.223Z,2424
2017-03-02T12:17:54.766Z,1948
2017-03-02T12:18:55.212Z,1620
2017-03-02T12:19:55.101Z,1604
2017-03-02T12:20:55.160Z,1788
2017-03-02T12:21:55.092Z,2128
2017-03-02T12:22:55.167Z,2344
2017-03-02T12:23:54.670Z,2776
2017-03-02T12:24:54.599Z,2880
2017-03-02T12:25:54.597Z,2864
2017-03-02T12:26:54.559Z,3376
2017-03-02T12:27:54.942Z,6660
2017-03-02T12:28:54.917Z,4856
2017-03-02T12:29:54.987Z,4272
2017-03-02T12:30:54.475Z,3792
2017-03-02T12:31:54.559Z,3532
2017-03-02T12:32:54.406Z,3208
2017-03-02T12:33:54.824Z,3384
2017-03-02T12:34:54.783Z,3500
2017-03-02T12:35:54.436Z,3592
2017-03-02T12:36:54.392Z,2988
2017-03-02T12:37:54.343Z,2744
2017-03-02T12:38:53.893Z,2472
2017-03-02T12:39:54.733Z,2244
2017-03-02T12:40:54.641Z,2264
2017-03-02T12:41:54.631Z,2660
2017-03-02T12:42:54.261Z,2992
2017-03-02T12:43:54.700Z,3524
2017-03-02T12:44:54.541Z,4204
2017-03-02T12:45:54.138Z,4604
2017-03-02T12:46:54.110Z,4680
2017-03-02T12:47:53.719Z,4940
2017-03-02T12:48:53.679Z,6252
2017-03-02T12:49:54.431Z,6408
2017-03-02T12:50:54.465Z,6984
2017-03-02T12:51:54.023Z,7284
2017-03-02T12:52:53.965Z,6988
2017-03-02T12:53:54.405Z,6824
2017-03-02T12:54:53.555Z,6972
2017-03-02T12:55:54.314Z,6400
2017-03-02T12:56:54.002Z,5840
2017-03-02T12:57:53.483Z,5440
2017-03-02T12:58:53.061Z,5408
2017-03-02T12:59:53.837Z,5336
2017-03-02T13:00:53.831Z,5296
2017-03-02T13:01:53.395Z,5540
2017-03-02T13:02:54.260Z,5372
2017-03-02T13:03:53.728Z,4920
2017-03-02T13:04:54.098Z,4208
2017-03-02T13:05:53.708Z,3628
2017-03-02T13:06:53.287Z,3128
2017-03-02T13:07:53.248Z,2872
2017-03-02T13:08:53.252Z,2792
2017-03-02T13:09:53.613Z,2900
2017-03-02T13:10:53.586Z,3564
2017-03-02T13:11:53.594Z,3476
2017-03-02T13:12:53.543Z,3512
2017-03-02T13:13:53.518Z,3852
2017-03-02T13:14:53.484Z,4192
2017-03-02T13:15:53.494Z,4472
2017-03-02T13:16:53.864Z,4628
2017-03-02T13:17:53.867Z,4668
2017-03-02T13:18:53.811Z,4636
2017-03-02T13:19:53.408Z,4536
2017-03-02T13:20:53.470Z,4336
2017-03-02T13:21:53.344Z,4104
2017-03-02T13:22:52.947Z,4020
2017-03-02T13:23:53.330Z,4228
2017-03-02T13:24:53.313Z,5420
2017-03-02T13:25:53.690Z,4968
2017-03-02T13:26:52.866Z,4724
2017-03-02T13:27:52.834Z,4160
2017-03-02T13:28:53.196Z,3284
2017-03-02T13:29:53.616Z,3208
2017-03-02T13:30:53.260Z,2824
2017-03-02T13:31:53.582Z,2976
2017-03-02T13:32:53.209Z,2856
2017-03-02T13:33:53.076Z,2820
2017-03-02T13:34:53.074Z,2668
2017-03-02T13:35:53.051Z,2224
2017-03-02T13:36:53.403Z,2020
2017-03-02T13:37:52.998Z,1968
2017-03-02T13:38:53.369Z,2016
2017-03-02T13:39:52.680Z,2276
2017-03-02T13:40:52.950Z,2196
2017-03-02T13:41:53.308Z,2376
2017-03-02T13:42:53.289Z,2628
2017-03-02T13:43:53.269Z,2848
2017-03-02T13:44:53.256Z,3184
2017-03-02T13:45:52.056Z,3508
2017-03-02T13:46:52.407Z,3928
2017-03-02T13:47:53.195Z,4240
2017-03-02T13:48:53.134Z,4648
2017-03-02T13:49:52.744Z,4936
2017-03-02T13:50:52.711Z,5088
2017-03-02T13:51:53.121Z,5192
2017-03-02T13:52:53.064Z,5404
2017-03-02T13:53:53.040Z,5512
2017-03-02T13:54:53.049Z,5796
2017-03-02T13:55:52.633Z,5904
2017-03-02T13:56:52.988Z,6024